sensor_id;sensor_type;location;lat;lon;timestamp;pressure;altitude;pressure_sealevel;temperature;humidity
75497;BME280;64074;47.540;19.072;2023-09-12T00:01:10;100351.59;;;21.21;58.28
75497;BME280;64074;47.540;19.072;2023-09-12T00:04:13;100340.19;;;21.23;58.15
75497;BME280;64074;47.540;19.072;2023-09-12T00:07:16;100349.13;;;21.16;58.35
75497;BME280;64074;47.540;19.072;2023-09-12T00:10:20;100356.41;;;21.24;58.48
75497;BME280;64074;47.540;19.072;2023-09-12T00:13:23;100352.31;;;21.18;58.22
75497;BME280;64074;47.540;19.072;2023-09-12T00:16:26;100355.28;;;21.29;58.01
75497;BME280;64074;47.540;19.072;2023-09-12T00:19:29;100345.00;;;21.26;57.51
75497;BME280;64074;47.540;19.072;2023-09-12T00:22:31;100348.03;;;21.20;58.15
75497;BME280;64074;47.540;19.072;2023-09-12T00:25:34;100350.38;;;21.18;58.13
75497;BME280;64074;47.540;19.072;2023-09-12T00:28:37;100343.63;;;21.16;57.74
75497;BME280;64074;47.540;19.072;2023-09-12T00:31:41;100344.66;;;21.08;57.90
75497;BME280;64074;47.540;19.072;2023-09-12T00:34:46;100347.44;;;21.08;57.89
75497;BME280;64074;47.540;19.072;2023-09-12T00:37:49;100349.09;;;21.12;57.85
75497;BME280;64074;47.540;19.072;2023-09-12T00:40:52;100349.03;;;21.09;58.04
75497;BME280;64074;47.540;19.072;2023-09-12T00:43:55;100350.31;;;21.15;57.98
75497;BME280;64074;47.540;19.072;2023-09-12T00:46:59;100345.28;;;21.20;57.83
75497;BME280;64074;47.540;19.072;2023-09-12T00:50:05;100348.34;;;21.15;58.31
75497;BME280;64074;47.540;19.072;2023-09-12T00:53:09;100341.03;;;21.04;58.82
75497;BME280;64074;47.540;19.072;2023-09-12T00:56:12;100342.06;;;20.96;58.86
75497;BME280;64074;47.540;19.072;2023-09-12T00:59:17;100342.56;;;21.01;58.90
75497;BME280;64074;47.540;19.072;2023-09-12T01:02:22;100346.03;;;20.98;58.28
75497;BME280;64074;47.540;19.072;2023-09-12T01:05:26;100336.13;;;20.94;58.35
75497;BME280;64074;47.540;19.072;2023-09-12T01:08:32;100343.47;;;20.86;58.97
75497;BME280;64074;47.540;19.072;2023-09-12T01:11:37;100342.94;;;20.80;59.41
75497;BME280;64074;47.540;19.072;2023-09-12T01:14:40;100354.19;;;20.72;59.29
75497;BME280;64074;47.540;19.072;2023-09-12T01:17:45;100350.84;;;20.43;59.64
75497;BME280;64074;47.540;19.072;2023-09-12T01:28:02;100351.50;;;20.75;59.40
75497;BME280;64074;47.540;19.072;2023-09-12T01:31:06;100348.97;;;20.67;59.62
75497;BME280;64074;47.540;19.072;2023-09-12T01:34:10;100347.59;;;20.57;60.24
75497;BME280;64074;47.540;19.072;2023-09-12T01:37:13;100347.16;;;20.55;60.02
75497;BME280;64074;47.540;19.072;2023-09-12T01:40:17;100354.00;;;20.61;60.43
75497;BME280;64074;47.540;19.072;2023-09-12T01:43:23;100350.69;;;20.36;60.96
75497;BME280;64074;47.540;19.072;2023-09-12T01:46:28;100350.84;;;20.43;60.31
75497;BME280;64074;47.540;19.072;2023-09-12T01:49:33;100347.13;;;20.36;60.91
75497;BME280;64074;47.540;19.072;2023-09-12T01:52:36;100351.03;;;20.35;60.90
75497;BME280;64074;47.540;19.072;2023-09-12T01:55:42;100344.00;;;20.37;60.34
75497;BME280;64074;47.540;19.072;2023-09-12T01:58:46;100349.63;;;20.41;60.31
75497;BME280;64074;47.540;19.072;2023-09-12T02:01:49;100356.59;;;20.19;61.44
75497;BME280;64074;47.540;19.072;2023-09-12T02:05:15;100356.31;;;20.24;61.20
75497;BME280;64074;47.540;19.072;2023-09-12T02:08:21;100355.34;;;20.16;61.50
75497;BME280;64074;47.540;19.072;2023-09-12T02:11:26;100347.13;;;20.01;62.14
75497;BME280;64074;47.540;19.072;2023-09-12T02:14:29;100363.19;;;19.98;62.35
75497;BME280;64074;47.540;19.072;2023-09-12T02:17:32;100361.38;;;19.87;63.06
75497;BME280;64074;47.540;19.072;2023-09-12T02:20:38;100371.63;;;20.06;62.49
75497;BME280;64074;47.540;19.072;2023-09-12T02:23:42;100362.03;;;20.00;62.98
75497;BME280;64074;47.540;19.072;2023-09-12T02:26:45;100360.97;;;20.04;62.87
75497;BME280;64074;47.540;19.072;2023-09-12T02:29:47;100364.94;;;20.07;62.75
75497;BME280;64074;47.540;19.072;2023-09-12T02:32:50;100358.78;;;19.78;64.00
75497;BME280;64074;47.540;19.072;2023-09-12T02:35:53;100359.84;;;19.89;63.44
75497;BME280;64074;47.540;19.072;2023-09-12T02:38:56;100356.53;;;20.00;62.87
75497;BME280;64074;47.540;19.072;2023-09-12T02:41:59;100356.47;;;19.80;63.52
75497;BME280;64074;47.540;19.072;2023-09-12T02:45:02;100357.53;;;19.76;63.45
75497;BME280;64074;47.540;19.072;2023-09-12T02:48:06;100361.72;;;19.70;63.57
75497;BME280;64074;47.540;19.072;2023-09-12T02:51:09;100361.22;;;19.64;63.93
75497;BME280;64074;47.540;19.072;2023-09-12T02:54:12;100363.03;;;19.76;63.71
75497;BME280;64074;47.540;19.072;2023-09-12T02:57:15;100359.59;;;19.79;63.36
75497;BME280;64074;47.540;19.072;2023-09-12T03:00:19;100363.94;;;19.80;63.28
75497;BME280;64074;47.540;19.072;2023-09-12T03:03:22;100363.84;;;19.76;63.72
75497;BME280;64074;47.540;19.072;2023-09-12T03:06:25;100360.22;;;19.88;63.15
75497;BME280;64074;47.540;19.072;2023-09-12T03:09:28;100359.66;;;19.82;63.34
75497;BME280;64074;47.540;19.072;2023-09-12T03:12:31;100356.13;;;19.82;63.03
75497;BME280;64074;47.540;19.072;2023-09-12T03:15:37;100361.97;;;19.80;63.35
75497;BME280;64074;47.540;19.072;2023-09-12T03:18:41;100359.94;;;19.77;63.56
75497;BME280;64074;47.540;19.072;2023-09-12T03:21:44;100364.84;;;19.84;63.59
75497;BME280;64074;47.540;19.072;2023-09-12T03:24:47;100359.22;;;19.80;63.57
75497;BME280;64074;47.540;19.072;2023-09-12T03:27:49;100359.16;;;19.61;64.37
75497;BME280;64074;47.540;19.072;2023-09-12T03:31:03;100362.53;;;19.54;64.25
75497;BME280;64074;47.540;19.072;2023-09-12T03:34:06;100368.00;;;19.39;65.39
75497;BME280;64074;47.540;19.072;2023-09-12T03:37:09;100368.66;;;19.63;64.56
75497;BME280;64074;47.540;19.072;2023-09-12T03:40:12;100371.84;;;19.65;64.18
75497;BME280;64074;47.540;19.072;2023-09-12T03:43:15;100369.03;;;19.62;64.11
75497;BME280;64074;47.540;19.072;2023-09-12T03:46:18;100377.66;;;19.48;64.86
75497;BME280;64074;47.540;19.072;2023-09-12T03:49:22;100375.47;;;19.54;64.20
75497;BME280;64074;47.540;19.072;2023-09-12T03:52:25;100372.84;;;19.29;64.41
75497;BME280;64074;47.540;19.072;2023-09-12T03:55:28;100375.16;;;19.27;64.07
75497;BME280;64074;47.540;19.072;2023-09-12T03:58:31;100381.00;;;19.26;64.00
75497;BME280;64074;47.540;19.072;2023-09-12T04:01:34;100378.03;;;19.03;64.64
75497;BME280;64074;47.540;19.072;2023-09-12T04:04:37;100375.78;;;19.21;64.26
75497;BME280;64074;47.540;19.072;2023-09-12T04:07:41;100371.91;;;19.38;63.50
75497;BME280;64074;47.540;19.072;2023-09-12T04:10:44;100378.03;;;19.47;63.30
75497;BME280;64074;47.540;19.072;2023-09-12T04:13:47;100377.31;;;19.50;63.30
75497;BME280;64074;47.540;19.072;2023-09-12T04:16:49;100386.78;;;19.52;63.24
75497;BME280;64074;47.540;19.072;2023-09-12T04:19:53;100384.84;;;19.53;63.15
75497;BME280;64074;47.540;19.072;2023-09-12T04:22:55;100387.16;;;19.51;63.40
75497;BME280;64074;47.540;19.072;2023-09-12T04:25:58;100383.63;;;19.34;64.00
75497;BME280;64074;47.540;19.072;2023-09-12T04:29:06;100385.22;;;19.35;63.91
75497;BME280;64074;47.540;19.072;2023-09-12T04:32:09;100380.44;;;19.04;64.96
75497;BME280;64074;47.540;19.072;2023-09-12T04:35:12;100384.69;;;19.02;65.24
75497;BME280;64074;47.540;19.072;2023-09-12T04:38:15;100384.41;;;19.35;64.30
75497;BME280;64074;47.540;19.072;2023-09-12T04:41:18;100387.75;;;19.28;64.75
75497;BME280;64074;47.540;19.072;2023-09-12T04:44:21;100384.66;;;19.30;64.65
75497;BME280;64074;47.540;19.072;2023-09-12T04:47:24;100392.19;;;19.17;65.15
75497;BME280;64074;47.540;19.072;2023-09-12T04:50:27;100399.75;;;19.08;65.61
75497;BME280;64074;47.540;19.072;2023-09-12T04:53:30;100403.00;;;19.26;64.84
75497;BME280;64074;47.540;19.072;2023-09-12T04:56:38;100400.19;;;19.38;64.47
75497;BME280;64074;47.540;19.072;2023-09-12T04:59:41;100393.81;;;19.34;64.81
75497;BME280;64074;47.540;19.072;2023-09-12T05:02:46;100395.66;;;19.30;65.20
75497;BME280;64074;47.540;19.072;2023-09-12T05:05:54;100397.94;;;19.28;66.01
75497;BME280;64074;47.540;19.072;2023-09-12T05:08:58;100406.22;;;19.44;65.81
75497;BME280;64074;47.540;19.072;2023-09-12T05:12:01;100398.22;;;19.23;66.37
75497;BME280;64074;47.540;19.072;2023-09-12T05:15:08;100410.53;;;19.29;66.00
75497;BME280;64074;47.540;19.072;2023-09-12T05:18:15;100413.56;;;19.24;66.89
75497;BME280;64074;47.540;19.072;2023-09-12T05:21:19;100421.25;;;19.18;67.65
75497;BME280;64074;47.540;19.072;2023-09-12T05:24:22;100405.31;;;19.24;67.34
75497;BME280;64074;47.540;19.072;2023-09-12T05:27:30;100398.59;;;19.37;66.72
75497;BME280;64074;47.540;19.072;2023-09-12T05:30:40;100408.00;;;19.52;66.68
75497;BME280;64074;47.540;19.072;2023-09-12T05:34:11;100421.06;;;19.55;67.08
75497;BME280;64074;47.540;19.072;2023-09-12T05:37:15;100409.34;;;19.42;67.25
75497;BME280;64074;47.540;19.072;2023-09-12T05:40:21;100411.72;;;19.44;67.50
75497;BME280;64074;47.540;19.072;2023-09-12T05:43:25;100425.00;;;19.70;67.00
75497;BME280;64074;47.540;19.072;2023-09-12T05:47:03;100430.69;;;19.61;67.38
75497;BME280;64074;47.540;19.072;2023-09-12T05:50:13;100414.69;;;19.98;66.21
75497;BME280;64074;47.540;19.072;2023-09-12T05:53:22;100424.09;;;20.13;64.87
75497;BME280;64074;47.540;19.072;2023-09-12T05:56:32;100429.84;;;20.23;63.98
75497;BME280;64074;47.540;19.072;2023-09-12T05:59:39;100444.31;;;20.36;63.50
75497;BME280;64074;47.540;19.072;2023-09-12T06:03:20;100428.75;;;20.28;64.02
75497;BME280;64074;47.540;19.072;2023-09-12T06:06:35;100431.34;;;20.37;63.89
75497;BME280;64074;47.540;19.072;2023-09-12T06:09:58;100439.31;;;20.57;63.40
75497;BME280;64074;47.540;19.072;2023-09-12T06:13:34;100433.19;;;20.48;62.16
75497;BME280;64074;47.540;19.072;2023-09-12T06:16:52;100434.25;;;20.60;62.12
75497;BME280;64074;47.540;19.072;2023-09-12T06:19:58;100445.13;;;20.72;61.94
75497;BME280;64074;47.540;19.072;2023-09-12T06:23:17;100436.50;;;20.73;61.26
75497;BME280;64074;47.540;19.072;2023-09-12T06:27:02;100443.03;;;20.84;60.78
75497;BME280;64074;47.540;19.072;2023-09-12T06:30:10;100443.03;;;20.84;60.84
75497;BME280;64074;47.540;19.072;2023-09-12T06:33:30;100440.72;;;20.86;60.82
75497;BME280;64074;47.540;19.072;2023-09-12T06:36:38;100452.09;;;21.04;60.78
75497;BME280;64074;47.540;19.072;2023-09-12T06:39:49;100434.13;;;21.10;60.62
75497;BME280;64074;47.540;19.072;2023-09-12T06:42:57;100446.50;;;21.20;61.09
75497;BME280;64074;47.540;19.072;2023-09-12T06:46:03;100450.88;;;21.21;60.79
75497;BME280;64074;47.540;19.072;2023-09-12T06:49:51;100444.88;;;21.35;61.13
75497;BME280;64074;47.540;19.072;2023-09-12T06:53:52;100445.81;;;21.65;59.75
75497;BME280;64074;47.540;19.072;2023-09-12T06:58:31;100429.63;;;21.64;59.84
75497;BME280;64074;47.540;19.072;2023-09-12T07:02:05;100437.91;;;21.87;59.62
75497;BME280;64074;47.540;19.072;2023-09-12T07:05:36;100447.53;;;21.96;59.17
75497;BME280;64074;47.540;19.072;2023-09-12T07:14:22;100449.00;;;22.13;58.71
75497;BME280;64074;47.540;19.072;2023-09-12T07:17:30;100442.22;;;22.33;57.81
75497;BME280;64074;47.540;19.072;2023-09-12T07:21:05;100456.13;;;22.40;57.56
75497;BME280;64074;47.540;19.072;2023-09-12T07:24:25;100455.53;;;22.54;58.09
75497;BME280;64074;47.540;19.072;2023-09-12T07:27:50;100454.38;;;22.55;58.05
75497;BME280;64074;47.540;19.072;2023-09-12T07:30:59;100453.69;;;22.62;57.54
75497;BME280;64074;47.540;19.072;2023-09-12T07:34:06;100442.69;;;22.65;56.88
75497;BME280;64074;47.540;19.072;2023-09-12T07:37:13;100445.56;;;22.76;56.61
75497;BME280;64074;47.540;19.072;2023-09-12T07:40:16;100444.19;;;22.89;55.91
75497;BME280;64074;47.540;19.072;2023-09-12T07:44:26;100456.38;;;23.15;54.96
75497;BME280;64074;47.540;19.072;2023-09-12T07:48:20;100440.06;;;23.43;54.06
75497;BME280;64074;47.540;19.072;2023-09-12T07:52:33;100447.13;;;23.74;53.86
75497;BME280;64074;47.540;19.072;2023-09-12T07:56:09;100444.75;;;23.76;52.10
75497;BME280;64074;47.540;19.072;2023-09-12T07:59:20;100449.41;;;24.09;51.65
75497;BME280;64074;47.540;19.072;2023-09-12T08:02:28;100443.97;;;24.27;51.01
75497;BME280;64074;47.540;19.072;2023-09-12T08:05:43;100436.81;;;24.22;51.11
75497;BME280;64074;47.540;19.072;2023-09-12T08:09:02;100430.25;;;24.38;51.09
75497;BME280;64074;47.540;19.072;2023-09-12T08:12:08;100426.81;;;24.59;50.70
75497;BME280;64074;47.540;19.072;2023-09-12T08:15:14;100420.50;;;24.69;50.27
75497;BME280;64074;47.540;19.072;2023-09-12T08:19:22;100439.22;;;24.86;49.81
75497;BME280;64074;47.540;19.072;2023-09-12T08:23:00;100437.25;;;24.94;50.53
75497;BME280;64074;47.540;19.072;2023-09-12T08:26:13;100434.56;;;25.08;48.90
75497;BME280;64074;47.540;19.072;2023-09-12T08:29:50;100431.88;;;25.33;48.45
75497;BME280;64074;47.540;19.072;2023-09-12T08:32:56;100432.69;;;25.44;48.29
75497;BME280;64074;47.540;19.072;2023-09-12T08:36:04;100435.44;;;25.44;47.59
75497;BME280;64074;47.540;19.072;2023-09-12T08:39:15;100443.44;;;25.67;47.42
75497;BME280;64074;47.540;19.072;2023-09-12T08:42:23;100433.56;;;25.84;46.15
75497;BME280;64074;47.540;19.072;2023-09-12T08:45:29;100440.28;;;26.18;46.04
75497;BME280;64074;47.540;19.072;2023-09-12T08:49:08;100432.34;;;26.17;45.65
75497;BME280;64074;47.540;19.072;2023-09-12T08:52:17;100433.53;;;26.41;45.10
75497;BME280;64074;47.540;19.072;2023-09-12T08:55:31;100416.44;;;26.39;43.92
75497;BME280;64074;47.540;19.072;2023-09-12T08:58:53;100419.19;;;26.60;44.22
75497;BME280;64074;47.540;19.072;2023-09-12T09:02:18;100419.09;;;26.74;43.55
75497;BME280;64074;47.540;19.072;2023-09-12T09:05:36;100426.59;;;27.02;42.89
75497;BME280;64074;47.540;19.072;2023-09-12T09:13:29;100418.75;;;27.52;40.16
75497;BME280;64074;47.540;19.072;2023-09-12T09:17:12;100417.72;;;27.84;39.33
75497;BME280;64074;47.540;19.072;2023-09-12T09:20:51;100427.22;;;27.90;39.81
75497;BME280;64074;47.540;19.072;2023-09-12T09:24:22;100421.97;;;27.99;39.80
75497;BME280;64074;47.540;19.072;2023-09-12T09:34:52;100417.09;;;28.52;36.07
75497;BME280;64074;47.540;19.072;2023-09-12T09:40:17;100413.97;;;28.80;35.84
75497;BME280;64074;47.540;19.072;2023-09-12T09:44:17;100413.94;;;28.84;35.43
75497;BME280;64074;47.540;19.072;2023-09-12T09:47:28;100426.13;;;28.97;33.25
75497;BME280;64074;47.540;19.072;2023-09-12T09:52:09;100410.97;;;28.98;33.36
75497;BME280;64074;47.540;19.072;2023-09-12T09:55:29;100418.09;;;29.02;32.71
75497;BME280;64074;47.540;19.072;2023-09-12T10:03:12;100412.63;;;29.22;31.86
75497;BME280;64074;47.540;19.072;2023-09-12T10:06:37;100405.13;;;29.46;33.20
75497;BME280;64074;47.540;19.072;2023-09-12T10:10:07;100408.69;;;29.50;33.55
75497;BME280;64074;47.540;19.072;2023-09-12T10:19:55;100405.13;;;29.46;31.77
75497;BME280;64074;47.540;19.072;2023-09-12T10:27:18;100398.00;;;29.92;31.25
75497;BME280;64074;47.540;19.072;2023-09-12T10:30:26;100393.25;;;29.89;30.79
75497;BME280;64074;47.540;19.072;2023-09-12T10:33:43;100398.97;;;29.82;31.54
75497;BME280;64074;47.540;19.072;2023-09-12T10:37:16;100394.41;;;29.91;30.54
75497;BME280;64074;47.540;19.072;2023-09-12T10:40:56;100384.72;;;29.96;30.73
75497;BME280;64074;47.540;19.072;2023-09-12T10:44:16;100378.84;;;30.14;30.47
75497;BME280;64074;47.540;19.072;2023-09-12T10:47:23;100371.28;;;30.34;31.16
75497;BME280;64074;47.540;19.072;2023-09-12T10:54:43;100379.91;;;30.83;30.15
75497;BME280;64074;47.540;19.072;2023-09-12T10:58:06;100377.66;;;30.94;30.45
75497;BME280;64074;47.540;19.072;2023-09-12T11:01:28;100377.63;;;30.78;30.33
75497;BME280;64074;47.540;19.072;2023-09-12T11:12:50;100361.66;;;31.11;29.50
75497;BME280;64074;47.540;19.072;2023-09-12T11:19:50;100367.13;;;31.18;30.04
75497;BME280;64074;47.540;19.072;2023-09-12T11:23:10;100351.91;;;31.19;30.07
75497;BME280;64074;47.540;19.072;2023-09-12T11:26:17;100362.00;;;31.49;29.76
75497;BME280;64074;47.540;19.072;2023-09-12T11:29:29;100347.19;;;31.81;28.71
75497;BME280;64074;47.540;19.072;2023-09-12T11:32:39;100347.44;;;31.87;28.50
75497;BME280;64074;47.540;19.072;2023-09-12T11:35:52;100343.84;;;31.86;28.67
75497;BME280;64074;47.540;19.072;2023-09-12T11:39:25;100332.28;;;31.68;28.36
75497;BME280;64074;47.540;19.072;2023-09-12T11:42:39;100341.41;;;32.17;28.19
75497;BME280;64074;47.540;19.072;2023-09-12T11:45:59;100331.94;;;32.27;27.60
75497;BME280;64074;47.540;19.072;2023-09-12T11:49:15;100327.31;;;32.62;27.18
75497;BME280;64074;47.540;19.072;2023-09-12T11:52:38;100329.09;;;32.69;26.84
75497;BME280;64074;47.540;19.072;2023-09-12T11:55:49;100341.75;;;32.90;27.38
75497;BME280;64074;47.540;19.072;2023-09-12T11:59:06;100333.84;;;32.72;26.92
75497;BME280;64074;47.540;19.072;2023-09-12T12:02:17;100327.22;;;32.79;27.58
75497;BME280;64074;47.540;19.072;2023-09-12T12:05:26;100320.59;;;32.72;27.15
75497;BME280;64074;47.540;19.072;2023-09-12T12:08:36;100330.75;;;33.08;26.85
75497;BME280;64074;47.540;19.072;2023-09-12T12:12:30;100329.53;;;32.55;26.94
75497;BME280;64074;47.540;19.072;2023-09-12T12:16:28;100318.03;;;32.91;26.25
75497;BME280;64074;47.540;19.072;2023-09-12T12:20:43;100322.75;;;33.92;25.42
75497;BME280;64074;47.540;19.072;2023-09-12T12:24:35;100322.56;;;34.08;25.14
75497;BME280;64074;47.540;19.072;2023-09-12T12:27:53;100294.84;;;34.41;24.71
75497;BME280;64074;47.540;19.072;2023-09-12T12:31:16;100301.91;;;34.77;24.09
75497;BME280;64074;47.540;19.072;2023-09-12T12:35:51;100296.28;;;36.30;22.18
75497;BME280;64074;47.540;19.072;2023-09-12T12:39:03;100293.72;;;36.51;21.72
75497;BME280;64074;47.540;19.072;2023-09-12T12:42:12;100286.59;;;37.07;21.55
75497;BME280;64074;47.540;19.072;2023-09-12T12:45:52;100298.59;;;38.12;20.43
75497;BME280;64074;47.540;19.072;2023-09-12T12:49:21;100274.06;;;37.32;20.57
75497;BME280;64074;47.540;19.072;2023-09-12T12:52:52;100271.81;;;35.82;22.41
75497;BME280;64074;47.540;19.072;2023-09-12T12:56:04;100281.22;;;35.88;22.11
75497;BME280;64074;47.540;19.072;2023-09-12T12:59:28;100270.50;;;36.89;20.88
75497;BME280;64074;47.540;19.072;2023-09-12T13:02:37;100272.03;;;37.32;21.21
75497;BME280;64074;47.540;19.072;2023-09-12T13:05:50;100268.19;;;37.83;19.95
75497;BME280;64074;47.540;19.072;2023-09-12T13:08:53;100264.16;;;38.43;19.36
75497;BME280;64074;47.540;19.072;2023-09-12T13:11:59;100268.66;;;39.34;18.80
75497;BME280;64074;47.540;19.072;2023-09-12T13:15:04;100254.91;;;38.92;18.87
75497;BME280;64074;47.540;19.072;2023-09-12T13:18:10;100257.56;;;39.97;18.29
75497;BME280;64074;47.540;19.072;2023-09-12T13:21:13;100259.75;;;39.06;18.60
75497;BME280;64074;47.540;19.072;2023-09-12T13:24:18;100264.31;;;39.39;18.60
75497;BME280;64074;47.540;19.072;2023-09-12T13:27:29;100256.34;;;40.04;17.54
75497;BME280;64074;47.540;19.072;2023-09-12T13:30:39;100264.41;;;39.24;18.10
75497;BME280;64074;47.540;19.072;2023-09-12T13:34:02;100251.94;;;39.83;17.71
75497;BME280;64074;47.540;19.072;2023-09-12T13:37:07;100244.34;;;40.83;16.46
75497;BME280;64074;47.540;19.072;2023-09-12T13:40:16;100241.88;;;41.02;16.96
75497;BME280;64074;47.540;19.072;2023-09-12T13:43:29;100240.63;;;40.66;16.91
75497;BME280;64074;47.540;19.072;2023-09-12T13:46:33;100247.59;;;40.65;17.04
75497;BME280;64074;47.540;19.072;2023-09-12T13:49:38;100239.47;;;40.52;17.09
75497;BME280;64074;47.540;19.072;2023-09-12T13:52:44;100237.59;;;39.25;17.92
75497;BME280;64074;47.540;19.072;2023-09-12T13:55:50;100263.16;;;38.02;18.96
75497;BME280;64074;47.540;19.072;2023-09-12T13:59:05;100245.81;;;39.23;18.07
75497;BME280;64074;47.540;19.072;2023-09-12T14:02:09;100255.50;;;40.55;16.87
75497;BME280;64074;47.540;19.072;2023-09-12T14:05:16;100243.88;;;40.53;17.16
75497;BME280;64074;47.540;19.072;2023-09-12T14:08:21;100250.25;;;41.71;16.81
75497;BME280;64074;47.540;19.072;2023-09-12T14:11:25;100244.72;;;40.34;16.90
75497;BME280;64074;47.540;19.072;2023-09-12T14:14:37;100239.31;;;41.04;16.95
75497;BME280;64074;47.540;19.072;2023-09-12T14:17:43;100247.13;;;41.15;15.97
75497;BME280;64074;47.540;19.072;2023-09-12T14:20:58;100244.03;;;39.26;17.74
75497;BME280;64074;47.540;19.072;2023-09-12T14:24:02;100244.47;;;41.06;16.51
75497;BME280;64074;47.540;19.072;2023-09-12T14:27:07;100242.28;;;39.69;17.23
75497;BME280;64074;47.540;19.072;2023-09-12T14:30:25;100238.78;;;41.00;17.01
75497;BME280;64074;47.540;19.072;2023-09-12T14:33:37;100242.22;;;40.15;16.90
75497;BME280;64074;47.540;19.072;2023-09-12T14:36:41;100237.09;;;40.45;17.10
75497;BME280;64074;47.540;19.072;2023-09-12T14:39:45;100223.84;;;39.85;17.16
75497;BME280;64074;47.540;19.072;2023-09-12T14:42:48;100227.09;;;39.98;17.06
75497;BME280;64074;47.540;19.072;2023-09-12T14:45:54;100230.94;;;38.93;18.44
75497;BME280;64074;47.540;19.072;2023-09-12T14:48:57;100233.88;;;38.34;18.97
75497;BME280;64074;47.540;19.072;2023-09-12T14:52:04;100234.34;;;38.03;18.92
75497;BME280;64074;47.540;19.072;2023-09-12T14:55:19;100235.06;;;36.79;19.96
75497;BME280;64074;47.540;19.072;2023-09-12T14:58:22;100223.22;;;36.56;19.88
75497;BME280;64074;47.540;19.072;2023-09-12T15:01:26;100230.16;;;36.88;20.15
75497;BME280;64074;47.540;19.072;2023-09-12T15:04:45;100225.38;;;36.19;20.70
75497;BME280;64074;47.540;19.072;2023-09-12T15:08:15;100220.53;;;35.37;21.57
75497;BME280;64074;47.540;19.072;2023-09-12T15:11:48;100232.41;;;34.74;22.13
75497;BME280;64074;47.540;19.072;2023-09-12T15:15:20;100222.94;;;34.28;22.76
75497;BME280;64074;47.540;19.072;2023-09-12T15:18:26;100218.78;;;33.88;23.58
75497;BME280;64074;47.540;19.072;2023-09-12T15:21:43;100238.84;;;33.43;24.08
75497;BME280;64074;47.540;19.072;2023-09-12T15:24:47;100217.31;;;33.62;23.81
75497;BME280;64074;47.540;19.072;2023-09-12T15:27:50;100224.97;;;33.96;23.91
75497;BME280;64074;47.540;19.072;2023-09-12T15:30:55;100238.16;;;33.52;24.89
75497;BME280;64074;47.540;19.072;2023-09-12T15:33:58;100225.97;;;33.20;24.80
75497;BME280;64074;47.540;19.072;2023-09-12T15:37:11;100227.75;;;33.40;24.82
75497;BME280;64074;47.540;19.072;2023-09-12T15:40:17;100231.63;;;32.69;25.71
75497;BME280;64074;47.540;19.072;2023-09-12T15:43:21;100227.56;;;32.96;25.53
75497;BME280;64074;47.540;19.072;2023-09-12T15:46:29;100222.97;;;33.02;25.92
75497;BME280;64074;47.540;19.072;2023-09-12T15:49:37;100211.75;;;32.51;25.94
75497;BME280;64074;47.540;19.072;2023-09-12T15:52:41;100220.28;;;32.48;25.84
75497;BME280;64074;47.540;19.072;2023-09-12T15:55:48;100225.13;;;32.47;25.82
75497;BME280;64074;47.540;19.072;2023-09-12T15:58:56;100226.69;;;32.48;26.06
75497;BME280;64074;47.540;19.072;2023-09-12T16:02:01;100225.69;;;32.55;26.45
75497;BME280;64074;47.540;19.072;2023-09-12T16:05:05;100217.25;;;32.55;26.19
75497;BME280;64074;47.540;19.072;2023-09-12T16:08:10;100217.03;;;32.62;26.08
75497;BME280;64074;47.540;19.072;2023-09-12T16:11:14;100209.94;;;32.32;26.48
75497;BME280;64074;47.540;19.072;2023-09-12T16:14:18;100215.47;;;32.06;26.75
75497;BME280;64074;47.540;19.072;2023-09-12T16:17:24;100206.78;;;31.88;27.05
75497;BME280;64074;47.540;19.072;2023-09-12T16:20:27;100218.28;;;32.06;27.02
75497;BME280;64074;47.540;19.072;2023-09-12T16:23:33;100220.75;;;32.17;26.97
75497;BME280;64074;47.540;19.072;2023-09-12T16:26:36;100213.56;;;32.03;27.29
75497;BME280;64074;47.540;19.072;2023-09-12T16:29:40;100222.72;;;31.91;27.45
75497;BME280;64074;47.540;19.072;2023-09-12T16:32:43;100205.97;;;31.75;27.73
75497;BME280;64074;47.540;19.072;2023-09-12T16:35:47;100205.22;;;31.71;27.99
75497;BME280;64074;47.540;19.072;2023-09-12T16:38:52;100218.22;;;31.65;27.52
75497;BME280;64074;47.540;19.072;2023-09-12T16:41:56;100196.72;;;31.45;28.26
75497;BME280;64074;47.540;19.072;2023-09-12T16:44:59;100204.97;;;31.36;29.82
75497;BME280;64074;47.540;19.072;2023-09-12T16:48:03;100208.31;;;31.15;30.35
75497;BME280;64074;47.540;19.072;2023-09-12T16:51:08;100212.53;;;31.07;31.12
75497;BME280;64074;47.540;19.072;2023-09-12T16:54:15;100209.72;;;30.90;30.69
75497;BME280;64074;47.540;19.072;2023-09-12T16:57:17;100211.38;;;30.88;31.32
75497;BME280;64074;47.540;19.072;2023-09-12T17:00:21;100215.13;;;30.65;31.80
75497;BME280;64074;47.540;19.072;2023-09-12T17:03:24;100215.59;;;30.44;32.21
75497;BME280;64074;47.540;19.072;2023-09-12T17:06:28;100214.78;;;30.27;32.55
75497;BME280;64074;47.540;19.072;2023-09-12T17:09:32;100221.44;;;30.13;33.20
75497;BME280;64074;47.540;19.072;2023-09-12T17:12:36;100215.31;;;29.98;33.40
75497;BME280;64074;47.540;19.072;2023-09-12T17:15:39;100221.06;;;29.91;33.47
75497;BME280;64074;47.540;19.072;2023-09-12T17:18:43;100224.09;;;29.81;33.72
75497;BME280;64074;47.540;19.072;2023-09-12T17:21:47;100210.88;;;29.61;34.71
75497;BME280;64074;47.540;19.072;2023-09-12T17:24:52;100217.31;;;29.58;34.85
75497;BME280;64074;47.540;19.072;2023-09-12T17:27:59;100225.13;;;29.44;35.26
75497;BME280;64074;47.540;19.072;2023-09-12T17:31:03;100224.25;;;29.27;36.00